This is the latest recevied weather packets stored in our database for station/object N8QQQ. If no packets are shown the sender has not sent any weather packets the latest 10 day(s).
| Time | Temp. | Humidity | Pressure | Rain* | Wind** | Luminosity | Snow |
|---|---|---|---|---|---|---|---|
| 1778172090 | 6.11° C | 55% | 1009.9 hPa | 0 mm | - | 248 W/m² | - |
| 1778171787 | 6.67° C | 58% | 1010 hPa | 0 mm | - | 525 W/m² | - |
| 1778171485 | 5.56° C | 63% | 1010.2 hPa | 0 mm | - | 678 W/m² | - |
| 1778171180 | 5° C | 65% | 1010.2 hPa | 0 mm | - | 306 W/m² | - |
| 1778170877 | 5° C | 68% | 1010.2 hPa | 0 mm | - | 636 W/m² | - |
| 1778170573 | 4.44° C | 70% | 1010.4 hPa | 0 mm | - | 424 W/m² | - |
| 1778170270 | 3.89° C | 72% | 1010.7 hPa | 0 mm | - | 191 W/m² | - |
| 1778169967 | 3.33° C | 76% | 1010.6 hPa | 0 mm | - | 105 W/m² | - |
| 1778169663 | 3.33° C | 75% | 1010.7 hPa | 0 mm | - | 103 W/m² | - |
| 1778169358 | 3.33° C | 75% | 1010.7 hPa | 0 mm | - | 103 W/m² | - |
| 1778169055 | 3.33° C | 75% | 1010.6 hPa | 0 mm | - | 61 W/m² | - |
| 1778168752 | 3.89° C | 69% | 1010.4 hPa | 0 mm | - | 52 W/m² | - |
| 1778168449 | 3.89° C | 66% | 1010.4 hPa | 0 mm | - | 46 W/m² | - |
| 1778168146 | 4.44° C | 66% | 1010.5 hPa | 0 mm | - | 48 W/m² | - |
| 1778167842 | 4.44° C | 66% | 1010.4 hPa | 0 mm | - | 114 W/m² | - |
| 1778167538 | 4.44° C | 66% | 1010.4 hPa | 0 mm | - | 126 W/m² | - |
| 1778167235 | 4.44° C | 66% | 1010.4 hPa | 0 mm | - | 137 W/m² | - |
| 1778166930 | 4.44° C | 66% | 1010.6 hPa | 0 mm | - | 131 W/m² | - |
| 1778166622 | 4.44° C | 67% | 1010.4 hPa | 0 mm | - | 154 W/m² | - |
| 1778166319 | 4.44° C | 66% | 1010.5 hPa | 0 mm | - | 150 W/m² | - |
| 1778166016 | 4.44° C | 67% | 1010.5 hPa | 0 mm | - | 150 W/m² | - |
| 1778165710 | 3.89° C | 68% | 1010.6 hPa | 0 mm | - | 146 W/m² | - |
| 1778165409 | 3.89° C | 68% | 1010.6 hPa | 0 mm | - | 152 W/m² | - |
| 1778165105 | 3.89° C | 68% | 1010.6 hPa | 0 mm | - | 123 W/m² | - |
| 1778164803 | 3.89° C | 69% | 1010.6 hPa | 0 mm | - | 121 W/m² | - |
* Rain latest hour (hover to see other rain measurements)
** Current wind speed in m/s (hover to see current wind gust speed)